Time;durP1;ratioP1;P1;durP2;ratioP2;P2;SDS_P1;SDS_P2;PMS_P1;PMS_P2;Temp;Humidity;BMP_temperature;BMP_pressure;BME280_temperature;BME280_humidity;BME280_pressure;Samples;Min_cycle;Max_cycle;Signal;HPM_P1;HPM_P2
2020/12/20 00:00:21;;;;;;;50.75;29.40;;;;;;;4.54;73.10;101148.82;124446;1098;104606;-74
2020/12/20 00:02:51;;;;;;;52.95;30.05;;;;;;;4.55;72.91;101147.89;124689;1099;104919;-74
2020/12/20 00:05:21;;;;;;;48.83;27.63;;;;;;;4.58;73.21;101144.20;124526;1098;104526;-74
2020/12/20 00:07:49;;;;;;;56.07;30.83;;;;;;;4.59;72.90;101145.92;124420;1098;104497;-74
2020/12/20 00:10:18;;;;;;;56.40;31.03;;;;;;;4.61;73.00;101144.03;124370;1098;104548;-73
2020/12/20 00:12:47;;;;;;;48.13;27.20;;;;;;;4.59;72.87;101136.19;124487;1098;105082;-74
2020/12/20 00:15:16;;;;;;;44.03;25.37;;;;;;;4.60;73.04;101140.55;124414;1098;104627;-74
2020/12/20 00:17:48;;;;;;;43.00;24.33;;;;;;;4.59;72.94;101141.47;124529;1098;104583;-74
2020/12/20 00:20:16;;;;;;;46.97;25.77;;;;;;;4.63;73.01;101136.86;124481;1098;104592;-73
2020/12/20 00:22:45;;;;;;;54.60;31.47;;;;;;;4.65;72.73;101150.83;124420;1098;104599;-74
2020/12/20 00:25:14;;;;;;;47.63;27.87;;;;;;;4.64;72.88;101144.70;124420;1098;104535;-74
2020/12/20 00:27:42;;;;;;;50.60;28.20;;;;;;;4.63;72.94;101152.72;124468;1098;104712;-76
2020/12/20 00:30:10;;;;;;;51.60;28.80;;;;;;;4.59;72.98;101146.77;124444;1098;104539;-74
2020/12/20 00:32:38;;;;;;;44.17;24.33;;;;;;;4.59;72.89;101144.12;124478;1098;104608;-76
2020/12/20 00:35:07;;;;;;;43.10;22.55;;;;;;;4.62;72.79;101145.72;124472;1098;104672;-75
2020/12/20 00:37:36;;;;;;;41.60;24.13;;;;;;;4.64;73.03;101139.41;124325;1098;104593;-75
2020/12/20 00:40:05;;;;;;;50.10;28.57;;;;;;;4.67;72.92;101149.78;124391;1098;104564;-74
2020/12/20 00:42:33;;;;;;;49.27;28.10;;;;;;;4.67;72.81;101154.23;124461;1098;104606;-75
2020/12/20 00:45:01;;;;;;;50.80;27.25;;;;;;;4.68;72.74;101150.66;124439;1099;104525;-75
2020/12/20 00:47:29;;;;;;;48.53;28.07;;;;;;;4.68;72.73;101151.50;124517;1099;104715;-73
2020/12/20 00:49:58;;;;;;;95.83;54.13;;;;;;;4.65;72.81;101153.47;124390;1098;104576;-74
2020/12/20 00:52:26;;;;;;;162.95;78.25;;;;;;;4.62;72.96;101157.16;124433;1098;104805;-74
2020/12/20 00:54:56;;;;;;;76.80;35.63;;;;;;;4.61;72.94;101154.60;124457;1098;104654;-74
2020/12/20 00:57:24;;;;;;;116.30;50.43;;;;;;;4.61;72.92;101158.09;124428;1098;104967;-73
2020/12/20 00:59:53;;;;;;;67.83;30.87;;;;;;;4.63;72.89;101152.72;124503;1098;104703;-74
2020/12/20 01:02:22;;;;;;;93.60;45.85;;;;;;;4.65;72.84;101151.67;124531;1098;104602;-74
2020/12/20 01:04:50;;;;;;;85.50;42.63;;;;;;;4.66;72.90;101142.81;124430;1099;104599;-74
2020/12/20 01:07:19;;;;;;;59.60;30.00;;;;;;;4.69;72.94;101137.32;124503;1098;104618;-74
2020/12/20 01:09:50;;;;;;;115.35;52.15;;;;;;;4.69;72.89;101141.77;124447;1099;104670;-74
2020/12/20 01:12:19;;;;;;;63.83;31.30;;;;;;;4.66;72.73;101136.69;124431;1098;104669;-73
2020/12/20 01:15:07;;;;;;;50.83;27.50;;;;;;;4.61;72.83;101138.74;124467;1099;104532;-73
2020/12/20 01:17:39;;;;;;;52.57;28.77;;;;;;;4.62;72.91;101130.73;124649;1098;104669;-73
2020/12/20 01:20:10;;;;;;;53.10;27.85;;;;;;;4.61;72.95;101131.66;124520;1098;104592;-74
2020/12/20 01:22:38;;;;;;;91.97;43.23;;;;;;;4.62;72.80;101128.08;124410;1099;105152;-73
2020/12/20 01:25:07;;;;;;;87.80;37.27;;;;;;;4.64;72.82;101128.84;124449;1098;104568;-73
2020/12/20 01:27:35;;;;;;;157.10;55.53;;;;;;;4.65;73.01;101130.52;124478;1099;104794;-73
2020/12/20 01:30:04;;;;;;;104.23;44.47;;;;;;;4.69;72.95;101131.19;124449;1098;105031;-74
2020/12/20 01:32:33;;;;;;;317.37;107.80;;;;;;;4.70;72.70;101122.33;124533;1099;104664;-73
2020/12/20 01:35:09;;;;;;;143.53;49.93;;;;;;;4.69;72.75;101132.03;124485;1098;104624;-73
2020/12/20 01:37:38;;;;;;;112.37;42.23;;;;;;;4.65;72.88;101130.52;124481;1098;104605;-73
2020/12/20 01:40:08;;;;;;;118.73;45.80;;;;;;;4.66;72.88;101134.04;124474;1098;104539;-74
2020/12/20 01:42:36;;;;;;;117.97;45.03;;;;;;;4.67;72.63;101139.20;124404;1098;104618;-74
2020/12/20 01:45:06;;;;;;;78.03;33.33;;;;;;;4.69;72.87;101126.75;124408;1098;104605;-74
2020/12/20 01:47:39;;;;;;;84.10;38.10;;;;;;;4.74;72.87;101120.35;124589;1099;104647;-74
2020/12/20 01:50:11;;;;;;;85.73;39.57;;;;;;;4.74;72.76;101121.19;124468;1098;104971;-74
2020/12/20 01:52:41;;;;;;;81.23;38.63;;;;;;;4.71;72.66;101124.89;124425;1098;104497;-74
2020/12/20 01:55:10;;;;;;;75.63;35.33;;;;;;;4.72;72.90;101126.56;124503;1099;105057;-74
2020/12/20 01:58:00;;;;;;;93.77;46.63;;;;;;;4.72;72.98;101126.56;124514;1098;104618;-73
2020/12/20 02:00:42;;;;;;;66.37;34.43;;;;;;;4.72;72.82;101115.16;124460;1098;104621;-73
2020/12/20 02:03:34;;;;;;;58.03;30.67;;;;;;;4.75;72.92;101114.10;124415;1099;104690;-74
2020/12/20 02:06:05;;;;;;;55.83;30.47;;;;;;;4.80;72.96;101109.39;124431;1098;104942;-75
2020/12/20 02:08:33;;;;;;;62.70;34.13;;;;;;;4.83;72.96;101101.25;124347;1098;104577;-75
2020/12/20 02:11:09;;;;;;;57.13;32.10;;;;;;;4.86;72.74;101109.01;124429;1098;104973;-75
2020/12/20 02:13:41;;;;;;;56.37;29.30;;;;;;;4.89;73.07;101100.89;124430;1098;105031;-75
2020/12/20 02:16:09;;;;;;;50.13;27.93;;;;;;;4.89;72.71;101101.73;124500;1099;104622;-72
2020/12/20 02:18:38;;;;;;;59.90;30.90;;;;;;;4.90;72.55;101099.93;124480;1098;104737;-73
2020/12/20 02:21:13;;;;;;;49.10;27.43;;;;;;;4.89;72.96;101100.89;124348;1098;104593;-73
2020/12/20 02:23:43;;;;;;;43.63;23.60;;;;;;;4.88;72.83;101096.53;124364;1098;105224;-74
2020/12/20 02:26:12;;;;;;;44.33;24.93;;;;;;;4.90;72.74;101092.00;124405;1098;105028;-74
2020/12/20 02:28:40;;;;;;;48.07;25.40;;;;;;;4.92;72.64;101090.11;124575;1098;104676;-72
2020/12/20 02:31:20;;;;;;;52.70;26.50;;;;;;;4.94;72.85;101098.79;124516;1099;104579;-75
2020/12/20 02:33:48;;;;;;;47.10;25.73;;;;;;;4.94;72.56;101088.21;124468;1098;105025;-75
2020/12/20 02:36:17;;;;;;;48.03;26.23;;;;;;;4.98;72.55;101092.36;124381;1098;104634;-75
2020/12/20 02:38:46;;;;;;;49.57;25.97;;;;;;;4.97;72.51;101084.55;124506;1098;104666;-75
2020/12/20 02:41:20;;;;;;;51.50;28.03;;;;;;;4.90;72.47;101082.27;124501;1098;104612;-75
2020/12/20 02:43:50;;;;;;;39.55;21.15;;;;;;;4.89;72.67;101085.03;124457;1098;105173;-76
2020/12/20 02:46:21;;;;;;;41.47;22.00;;;;;;;4.86;72.76;101083.41;124471;1098;104516;-75
2020/12/20 02:49:12;;;;;;;44.07;24.23;;;;;;;4.85;72.90;101078.20;124522;1098;104618;-76
2020/12/20 02:51:40;;;;;;;49.93;26.33;;;;;;;4.86;72.75;101086.05;124426;1099;104528;-76
2020/12/20 02:54:09;;;;;;;47.90;25.55;;;;;;;4.87;72.58;101077.19;124446;1098;104634;-76
2020/12/20 02:56:48;;;;;;;48.13;25.27;;;;;;;4.86;72.95;101079.92;124452;1098;104663;-76
2020/12/20 02:59:33;;;;;;;51.67;28.33;;;;;;;4.84;72.40;101081.81;124405;1099;104519;-75
2020/12/20 03:02:01;;;;;;;51.80;27.43;;;;;;;4.82;72.87;101081.06;124438;1098;104692;-77
2020/12/20 03:04:31;;;;;;;49.00;26.10;;;;;;;4.80;72.75;101082.95;124354;1098;104660;-76
2020/12/20 03:06:59;;;;;;;60.85;31.85;;;;;;;4.82;72.98;101086.34;124289;1098;104712;-76
2020/12/20 03:09:28;;;;;;;55.83;31.63;;;;;;;4.83;72.91;101080.09;124475;1098;104695;-75
2020/12/20 03:11:57;;;;;;;46.40;25.10;;;;;;;4.84;72.64;101082.66;124458;1098;104514;-75
2020/12/20 03:14:26;;;;;;;50.67;25.63;;;;;;;4.87;72.63;101086.92;124418;1098;104651;-74
2020/12/20 03:17:00;;;;;;;50.50;26.55;;;;;;;4.88;72.84;101089.45;124468;1098;104512;-75
2020/12/20 03:19:28;;;;;;;51.23;26.80;;;;;;;4.88;72.83;101080.67;124540;1098;104692;-74
2020/12/20 03:21:59;;;;;;;45.90;25.57;;;;;;;4.87;72.83;101086.92;124465;1098;104602;-73
2020/12/20 03:24:46;;;;;;;51.07;26.70;;;;;;;4.83;72.73;101090.67;124422;1098;104664;-73
2020/12/20 03:27:43;;;;;;;39.83;21.33;;;;;;;4.81;72.66;101096.08;123953;1099;104740;-76
2020/12/20 03:30:27;;;;;;;40.80;20.90;;;;;;;4.79;72.76;101097.10;124499;1098;104676;-76
2020/12/20 03:33:08;;;;;;;43.63;23.92;;;;;;;4.81;72.56;101098.73;124470;1098;104983;-76
2020/12/20 03:35:53;;;;;;;42.40;24.80;;;;;;;4.87;73.18;101100.98;124419;1098;104538;-74
2020/12/20 03:38:21;;;;;;;48.70;25.60;;;;;;;4.90;72.46;101099.93;124434;1098;104602;-74
2020/12/20 03:40:51;;;;;;;49.85;26.55;;;;;;;4.88;72.84;101100.02;124485;1098;104675;-75
2020/12/20 03:43:20;;;;;;;48.50;25.80;;;;;;;4.90;72.49;101099.93;124523;1098;105063;-75
2020/12/20 03:45:55;;;;;;;49.70;26.35;;;;;;;4.89;72.84;101088.52;124444;1099;104538;-75
2020/12/20 03:48:32;;;;;;;49.80;25.77;;;;;;;4.88;72.84;101096.53;124549;1098;104650;-74
2020/12/20 03:51:01;;;;;;;45.70;24.00;;;;;;;4.83;73.04;101093.31;124522;1098;104973;-73
2020/12/20 03:53:29;;;;;;;39.17;21.87;;;;;;;4.79;72.58;101094.45;124432;1098;104752;-74
2020/12/20 03:56:10;;;;;;;43.75;23.25;;;;;;;4.80;72.77;101091.72;124462;1098;104516;-76
2020/12/20 03:58:46;;;;;;;50.53;24.63;;;;;;;4.78;72.49;101092.77;124419;1098;104586;-73
2020/12/20 04:01:15;;;;;;;48.53;25.40;;;;;;;4.77;72.66;101091.06;124505;1098;104647;-76
2020/12/20 04:03:44;;;;;;;53.73;27.13;;;;;;;4.74;72.47;101085.98;124474;1098;104991;-74
2020/12/20 04:06:12;;;;;;;54.53;27.97;;;;;;;4.71;72.38;101090.52;124488;1098;104608;-75
2020/12/20 04:08:40;;;;;;;53.87;27.83;;;;;;;4.67;72.60;101096.91;124459;1098;104590;-75
2020/12/20 04:11:41;;;;;;;47.17;23.37;;;;;;;4.63;72.85;101098.05;124506;1098;104696;-75
2020/12/20 04:14:09;;;;;;;45.37;23.63;;;;;;;4.60;73.06;101095.61;124476;1098;104542;-73
2020/12/20 04:16:39;;;;;;;53.47;27.30;;;;;;;4.62;72.84;101092.84;124311;1099;105099;-73
2020/12/20 04:19:07;;;;;;;51.07;28.43;;;;;;;4.63;73.12;101102.49;124511;1098;104811;-73
2020/12/20 04:21:37;;;;;;;53.80;29.83;;;;;;;4.63;72.63;101099.84;124530;1098;104644;-73
2020/12/20 04:24:10;;;;;;;53.03;28.23;;;;;;;4.64;72.99;101102.41;124496;1098;104609;-74
2020/12/20 04:26:38;;;;;;;60.05;31.15;;;;;;;4.64;72.97;101097.12;124467;1098;104637;-74
2020/12/20 04:29:17;;;;;;;61.67;32.17;;;;;;;4.65;72.83;101097.96;124421;1098;104586;-73
2020/12/20 04:31:47;;;;;;;;;;;;;;;4.63;72.81;101100.69;124529;1098;104560;-75
2020/12/20 04:34:18;;;;;;;61.37;35.23;;;;;;;4.63;72.93;101099.84;124558;1098;104533;-75
2020/12/20 04:36:46;;;;;;;60.23;35.53;;;;;;;4.66;73.02;101105.80;124485;1099;105409;-74
2020/12/20 04:39:35;;;;;;;68.45;40.50;;;;;;;4.68;72.65;101103.91;124436;1098;104685;-72
2020/12/20 04:42:03;;;;;;;61.30;32.43;;;;;;;4.68;72.94;101108.36;124497;1098;104672;-74
2020/12/20 04:44:32;;;;;;;56.10;32.35;;;;;;;4.69;72.82;101104.75;124482;1099;104632;-76
2020/12/20 04:47:06;;;;;;;57.50;31.67;;;;;;;4.72;72.81;101105.42;124477;1098;104617;-73
2020/12/20 04:49:56;;;;;;;85.10;49.37;;;;;;;4.72;72.78;101100.12;124465;1098;104609;-73
2020/12/20 04:52:29;;;;;;;53.57;28.13;;;;;;;4.71;72.93;101102.86;124484;1098;104611;-73
2020/12/20 04:54:59;;;;;;;62.50;34.40;;;;;;;4.73;72.53;101111.55;124452;1098;104596;-73
2020/12/20 04:57:46;;;;;;;55.37;31.90;;;;;;;4.76;72.66;101103.44;124435;1098;104570;-73
2020/12/20 05:00:17;;;;;;;59.70;31.37;;;;;;;4.78;72.75;101104.19;124443;1098;104608;-73
2020/12/20 05:02:46;;;;;;;70.17;41.27;;;;;;;4.82;72.50;101110.14;124481;1097;104621;-73
2020/12/20 05:05:15;;;;;;;55.77;28.93;;;;;;;4.81;72.61;101103.14;124481;1098;104660;-73
2020/12/20 05:07:45;;;;;;;50.30;26.40;;;;;;;4.82;72.63;101112.79;124485;1098;104536;-75
2020/12/20 05:10:14;;;;;;;53.53;28.63;;;;;;;4.82;72.82;101110.98;124538;1098;104540;-75
2020/12/20 05:12:45;;;;;;;55.38;29.48;;;;;;;4.82;72.84;101102.21;124549;1098;104605;-74
2020/12/20 05:15:23;;;;;;;48.10;25.87;;;;;;;4.84;72.77;101102.97;124483;1098;104584;-75
2020/12/20 05:18:13;;;;;;;48.40;27.73;;;;;;;4.85;73.00;101094.95;124460;1099;105178;-74
2020/12/20 05:20:50;;;;;;;49.97;27.03;;;;;;;4.91;72.85;101109.58;124470;1099;104570;-74
2020/12/20 05:23:21;;;;;;;52.67;29.43;;;;;;;4.94;72.79;101114.66;124536;1099;104679;-74
2020/12/20 05:26:04;;;;;;;51.87;28.90;;;;;;;4.95;72.91;101116.38;124453;1098;104513;-74
2020/12/20 05:28:32;;;;;;;58.03;30.57;;;;;;;4.95;73.02;101113.73;124376;1098;105045;-73
2020/12/20 05:31:09;;;;;;;57.17;29.70;;;;;;;4.96;72.82;101119.86;124495;1099;104545;-73
2020/12/20 05:33:52;;;;;;;53.07;29.07;;;;;;;4.94;72.84;101125.23;124519;1098;104625;-73
2020/12/20 05:36:33;;;;;;;54.27;30.30;;;;;;;4.93;72.54;101118.27;124471;1098;104605;-75
2020/12/20 05:39:24;;;;;;;75.80;44.50;;;;;;;4.92;72.46;101121.84;124240;1098;104729;-76
2020/12/20 05:42:07;;;;;;;70.43;39.60;;;;;;;4.88;72.55;101129.11;124461;1098;104577;-73
2020/12/20 05:44:38;;;;;;;89.17;45.50;;;;;;;4.89;72.37;101128.18;124495;1098;104694;-73
2020/12/20 05:47:11;;;;;;;65.87;33.53;;;;;;;4.92;72.79;101132.42;124570;1098;104522;-74
2020/12/20 05:49:44;;;;;;;76.43;39.77;;;;;;;4.91;72.60;101136.87;124504;1098;104528;-73
2020/12/20 05:52:15;;;;;;;89.57;43.30;;;;;;;4.92;72.47;101143.00;124462;1098;104657;-70
2020/12/20 05:54:44;;;;;;;87.37;46.07;;;;;;;4.92;72.49;101143.00;124458;1098;104644;-74
2020/12/20 05:57:17;;;;;;;72.87;39.00;;;;;;;4.90;72.55;101139.60;124449;1098;104599;-74
2020/12/20 05:59:47;;;;;;;69.40;37.80;;;;;;;4.90;72.54;101140.44;124440;1098;104576;-73
2020/12/20 06:02:16;;;;;;;70.60;38.23;;;;;;;4.92;72.37;101143.84;124548;1098;104624;-73
2020/12/20 06:04:46;;;;;;;222.50;125.25;;;;;;;4.95;72.17;101141.98;124480;1098;104666;-77
2020/12/20 06:07:15;;;;;;;228.90;118.37;;;;;;;4.97;72.88;101143.58;124435;1099;104491;-73
2020/12/20 06:09:55;;;;;;;119.97;61.63;;;;;;;4.99;72.66;101144.33;124488;1098;104986;-74
2020/12/20 06:12:26;;;;;;;106.40;57.80;;;;;;;5.02;72.91;101148.56;124459;1098;104580;-75
2020/12/20 06:14:56;;;;;;;82.90;43.13;;;;;;;5.03;72.76;101147.64;124453;1098;105053;-75
2020/12/20 06:17:26;;;;;;;91.13;53.33;;;;;;;5.01;72.32;101145.08;124437;1098;104585;-74
2020/12/20 06:19:59;;;;;;;113.73;79.60;;;;;;;4.96;72.37;101144.50;124502;1099;104482;-74
2020/12/20 06:22:30;;;;;;;64.33;35.33;;;;;;;4.93;72.05;101150.00;124454;1098;104500;-75
2020/12/20 06:25:00;;;;;;;71.17;43.00;;;;;;;4.94;72.51;101146.39;124523;1098;104660;-76
2020/12/20 06:27:29;;;;;;;112.27;75.23;;;;;;;4.95;72.26;101150.76;124476;1098;104617;-76
2020/12/20 06:29:59;;;;;;;79.23;46.50;;;;;;;4.96;72.42;101138.37;124475;1098;104519;-75
2020/12/20 06:32:34;;;;;;;85.03;54.30;;;;;;;4.97;72.48;101148.02;124433;1098;105262;-75
2020/12/20 06:35:14;;;;;;;72.97;42.27;;;;;;;4.96;72.69;101144.50;124516;1098;104497;-76
2020/12/20 06:37:43;;;;;;;59.87;32.73;;;;;;;4.94;72.75;101149.04;124433;1099;104602;-77
2020/12/20 06:40:13;;;;;;;62.10;39.80;;;;;;;4.92;72.61;101149.13;124463;1098;104574;-74
2020/12/20 06:42:43;;;;;;;99.60;72.53;;;;;;;4.93;72.33;101155.30;124620;1098;104609;-73
2020/12/20 06:45:17;;;;;;;58.67;35.93;;;;;;;4.96;72.93;101154.24;124612;1092;104752;-75
2020/12/20 06:47:47;;;;;;;54.07;34.43;;;;;;;4.95;72.33;101158.69;124475;1093;104541;-78
2020/12/20 06:50:36;;;;;;;70.23;46.17;;;;;;;4.94;72.51;101156.97;124552;1093;104522;-77
2020/12/20 06:53:04;;;;;;;71.17;45.33;;;;;;;4.98;72.57;101162.93;124502;1093;104535;-77
2020/12/20 06:55:33;;;;;;;119.03;83.13;;;;;;;4.99;72.52;101156.71;124469;1098;104688;-76
2020/12/20 06:58:16;;;;;;;85.47;45.77;;;;;;;4.98;72.37;101171.70;124474;1099;104619;-77
2020/12/20 07:00:47;;;;;;;74.37;41.03;;;;;;;4.94;72.58;101167.55;124541;1093;104608;-76
2020/12/20 07:03:41;;;;;;;69.30;33.63;;;;;;;4.93;72.31;101163.23;124509;1093;104509;-77
2020/12/20 07:06:19;;;;;;;82.57;43.50;;;;;;;4.94;72.19;101167.55;124736;1093;104629;-77
2020/12/20 07:09:07;;;;;;;84.07;39.43;;;;;;;4.96;72.79;101165.66;124658;1093;105105;-74
2020/12/20 07:11:44;;;;;;;74.47;37.93;;;;;;;4.96;72.77;101163.02;124470;1098;104614;-75
2020/12/20 07:14:21;;;;;;;60.50;33.95;;;;;;;4.96;72.35;101168.30;124476;1098;104948;-75
2020/12/20 07:16:50;;;;;;;82.67;42.40;;;;;;;4.95;72.67;101174.56;124520;1098;104568;-74
2020/12/20 07:19:26;;;;;;;57.23;31.20;;;;;;;4.94;72.79;101177.30;124461;1099;104544;-74
2020/12/20 07:22:00;;;;;;;48.60;26.77;;;;;;;4.92;72.72;101183.51;124422;1098;104605;-72
2020/12/20 07:24:30;;;;;;;46.73;27.13;;;;;;;4.94;72.46;101180.78;124698;1093;104615;-74
2020/12/20 07:27:01;;;;;;;42.50;24.20;;;;;;;4.96;72.57;101181.53;124502;1093;104590;-74
2020/12/20 07:29:30;;;;;;;48.17;30.13;;;;;;;4.99;72.53;101184.00;124434;1093;104568;-74
2020/12/20 07:32:01;;;;;;;42.77;26.17;;;;;;;5.02;72.36;101181.18;124478;1093;104545;-75
2020/12/20 07:34:29;;;;;;;47.23;27.73;;;;;;;5.01;72.17;101189.20;124498;1093;104968;-75
2020/12/20 07:36:57;;;;;;;46.07;26.30;;;;;;;4.98;72.66;101182.28;124552;1093;104613;-73
2020/12/20 07:39:26;;;;;;;48.23;24.97;;;;;;;4.95;72.64;101176.36;124595;1093;104621;-76
2020/12/20 07:41:58;;;;;;;38.63;21.97;;;;;;;4.95;72.71;101190.42;124508;1093;104529;-74
2020/12/20 07:44:34;;;;;;;37.70;20.93;;;;;;;4.98;72.50;101194.67;124446;1093;104529;-75
2020/12/20 07:47:11;;;;;;;39.00;22.17;;;;;;;4.96;72.66;101197.41;124623;1093;104538;-73
2020/12/20 07:49:39;;;;;;;37.67;22.03;;;;;;;4.99;72.56;101191.94;124632;1098;104686;-74
2020/12/20 07:52:11;;;;;;;41.93;22.77;;;;;;;5.04;72.69;101207.52;124430;1099;104593;-76
2020/12/20 07:54:39;;;;;;;44.20;24.65;;;;;;;5.09;72.47;101206.28;124479;1098;104545;-77
2020/12/20 07:57:08;;;;;;;43.50;25.27;;;;;;;5.11;72.31;101207.04;124452;1098;104583;-72
2020/12/20 07:59:36;;;;;;;50.67;27.83;;;;;;;5.09;72.27;101201.00;124417;1099;104724;-75
2020/12/20 08:02:05;;;;;;;55.80;30.95;;;;;;;5.05;72.60;101202.13;124436;1098;105003;-73
2020/12/20 08:04:33;;;;;;;43.90;24.53;;;;;;;5.01;72.77;101197.98;124507;1093;104634;-76
2020/12/20 08:07:01;;;;;;;44.00;26.20;;;;;;;4.99;72.17;101202.52;124464;1093;104600;-79
2020/12/20 08:09:29;;;;;;;48.13;25.27;;;;;;;5.02;72.38;101209.41;124522;1098;105002;-76
2020/12/20 08:11:57;;;;;;;49.43;29.13;;;;;;;4.98;72.70;101211.38;124428;1098;104526;-73
2020/12/20 08:14:25;;;;;;;51.13;30.07;;;;;;;4.98;72.37;101216.67;124418;1099;104516;-74
2020/12/20 08:16:54;;;;;;;69.37;40.63;;;;;;;5.02;72.84;101217.34;124490;1098;104695;-72
2020/12/20 08:19:25;;;;;;;54.93;28.47;;;;;;;5.02;72.96;101218.21;124551;1098;104532;-74
2020/12/20 08:22:06;;;;;;;48.23;26.52;;;;;;;5.01;72.59;101221.79;124491;1098;104624;-71
2020/12/20 08:24:36;;;;;;;49.43;25.93;;;;;;;4.98;72.64;101224.61;124429;1098;105124;-75
2020/12/20 08:27:15;;;;;;;45.85;25.45;;;;;;;5.01;72.84;101226.23;124504;1098;104606;-71
2020/12/20 08:29:44;;;;;;;45.83;26.67;;;;;;;5.03;72.73;101224.34;124452;1098;104532;-71
2020/12/20 08:32:14;;;;;;;54.13;31.17;;;;;;;5.06;72.83;101224.14;124447;1098;104608;-72
2020/12/20 08:34:42;;;;;;;48.93;26.40;;;;;;;5.08;73.06;101230.19;124479;1099;104497;-76
2020/12/20 08:37:13;;;;;;;53.30;28.50;;;;;;;5.03;72.66;101229.63;124481;1098;104584;-77
2020/12/20 08:39:42;;;;;;;52.45;28.12;;;;;;;4.99;72.68;101223.67;124449;1098;104526;-78
2020/12/20 08:42:12;;;;;;;43.70;24.23;;;;;;;4.96;72.52;101229.14;124406;1098;104494;-77
2020/12/20 08:44:42;;;;;;;40.60;22.10;;;;;;;4.97;72.81;101241.44;125450;1092;104510;-80
2020/12/20 08:47:12;;;;;;;38.23;22.50;;;;;;;5.01;73.17;101236.81;124690;1093;104635;-78
2020/12/20 08:49:42;;;;;;;43.03;24.60;;;;;;;5.05;72.90;101231.23;124483;1093;104578;-79
2020/12/20 08:52:12;;;;;;;61.00;31.45;;;;;;;5.13;72.99;101237.86;124597;1093;104653;-79
2020/12/20 08:54:41;;;;;;;47.30;25.50;;;;;;;5.13;72.93;101237.86;124664;1098;105416;-81
2020/12/20 08:57:10;;;;;;;44.33;24.27;;;;;;;5.14;73.05;101234.25;124655;1098;104597;-81
2020/12/20 08:59:40;;;;;;;45.27;23.80;;;;;;;5.15;73.00;101238.61;124844;1098;104603;-79
2020/12/20 09:02:10;;;;;;;47.53;27.23;;;;;;;5.18;73.02;101243.73;124731;1093;105371;-81
2020/12/20 09:04:39;;;;;;;47.50;28.30;;;;;;;5.16;72.89;101240.30;124631;1098;104525;-79
2020/12/20 09:07:12;;;;;;;45.83;25.63;;;;;;;5.15;73.20;101236.81;124592;1099;104596;-77
2020/12/20 09:09:41;;;;;;;41.63;24.77;;;;;;;5.14;72.94;101242.19;124458;1098;105121;-77
2020/12/20 09:12:17;;;;;;;46.20;26.20;;;;;;;5.14;72.53;101243.06;124436;1099;104609;-76
2020/12/20 09:15:00;;;;;;;41.93;23.87;;;;;;;5.13;72.59;101245.80;124476;1098;104606;-76
2020/12/20 09:17:33;;;;;;;64.73;34.57;;;;;;;5.10;73.09;101244.20;124497;1098;104730;-75
2020/12/20 09:20:03;;;;;;;161.80;95.40;;;;;;;5.10;72.78;101255.62;124562;1098;104990;-75
2020/12/20 09:22:58;;;;;;;206.75;126.80;;;;;;;5.11;72.77;101259.95;124534;1098;104519;-74
2020/12/20 09:25:37;;;;;;;108.97;66.53;;;;;;;5.15;73.11;101259.78;124138;1098;104714;-73
2020/12/20 09:28:07;;;;;;;117.40;60.40;;;;;;;5.18;72.65;101254.31;124495;1099;104616;-80
2020/12/20 09:30:59;;;;;;;238.85;142.00;;;;;;;5.18;72.66;101254.31;124549;1098;104609;-75
2020/12/20 09:33:29;;;;;;;196.30;120.70;;;;;;;5.19;73.18;101251.55;124427;1098;104522;-72
2020/12/20 09:36:02;;;;;;;129.27;82.83;;;;;;;5.14;73.13;101266.88;124413;1098;104506;-72
2020/12/20 09:38:38;;;;;;;82.67;47.60;;;;;;;5.16;72.70;101250.87;124456;1099;104619;-71
2020/12/20 09:41:08;;;;;;;85.43;49.83;;;;;;;5.18;72.64;101256.95;124485;1098;104612;-74
2020/12/20 09:43:37;;;;;;;235.03;140.30;;;;;;;5.24;72.95;101238.90;124523;1098;104679;-73
2020/12/20 09:46:05;;;;;;;143.10;80.05;;;;;;;5.29;72.68;101236.83;124476;1098;104516;-72
2020/12/20 09:48:34;;;;;;;254.70;147.60;;;;;;;5.31;72.47;101234.06;124595;1098;104676;-72
2020/12/20 09:51:02;;;;;;;167.60;90.10;;;;;;;5.28;72.90;101234.27;124419;1099;104548;-73
2020/12/20 09:53:30;;;;;;;275.05;156.60;;;;;;;5.28;72.67;101239.56;124422;1098;104510;-73
2020/12/20 09:55:58;;;;;;;255.73;141.20;;;;;;;5.24;73.17;101244.19;124418;1098;104490;-73
2020/12/20 09:58:28;;;;;;;379.63;255.53;;;;;;;5.21;72.98;101240.87;124463;1099;104622;-75
2020/12/20 10:00:56;;;;;;;335.87;192.93;;;;;;;5.19;73.09;101235.67;124443;1098;104531;-73
2020/12/20 10:03:25;;;;;;;448.20;293.33;;;;;;;5.17;72.77;101231.43;124421;1098;104602;-72
2020/12/20 10:05:57;;;;;;;232.30;118.80;;;;;;;5.13;72.95;101241.34;124447;1098;104522;-73
2020/12/20 10:08:26;;;;;;;266.20;157.13;;;;;;;5.13;72.97;101235.21;124473;1098;104660;-70
2020/12/20 10:10:55;;;;;;;135.00;73.15;;;;;;;5.10;73.06;101233.62;124512;1093;104622;-74
2020/12/20 10:13:23;;;;;;;128.40;75.90;;;;;;;5.10;73.42;101234.45;124473;1093;104525;-76
2020/12/20 10:15:52;;;;;;;106.90;60.57;;;;;;;5.15;73.28;101238.61;124446;1098;104532;-79
2020/12/20 10:18:20;;;;;;;94.77;54.13;;;;;;;5.19;73.46;101232.19;124605;1098;105028;-76
2020/12/20 10:20:48;;;;;;;77.77;43.80;;;;;;;5.21;72.80;101230.30;124440;1098;104577;-77
2020/12/20 10:23:16;;;;;;;103.27;64.40;;;;;;;5.24;72.75;101230.12;124372;1099;104965;-76
2020/12/20 10:25:44;;;;;;;90.35;53.70;;;;;;;5.22;73.09;101230.20;124470;1098;104526;-74
2020/12/20 10:28:12;;;;;;;93.03;55.23;;;;;;;5.25;73.37;101237.09;124435;1098;104702;-74
2020/12/20 10:30:40;;;;;;;82.00;53.97;;;;;;;5.25;72.79;101227.38;124458;1098;104615;-75
2020/12/20 10:33:09;;;;;;;70.83;43.70;;;;;;;5.29;73.09;101238.59;124491;1098;104548;-74
2020/12/20 10:35:37;;;;;;;79.37;51.97;;;;;;;5.30;72.81;101233.22;124440;1098;104519;-75
2020/12/20 10:38:05;;;;;;;76.67;47.53;;;;;;;5.37;73.48;101228.41;124464;1098;104676;-76
2020/12/20 10:40:33;;;;;;;99.77;64.33;;;;;;;5.40;73.40;101228.20;124428;1098;105118;-76
2020/12/20 10:43:01;;;;;;;91.47;58.57;;;;;;;5.41;72.70;101227.27;124386;1098;104599;-78
2020/12/20 10:45:29;;;;;;;62.43;36.63;;;;;;;5.46;72.70;101221.67;124411;1098;104603;-75
2020/12/20 10:47:58;;;;;;;86.77;52.37;;;;;;;5.50;73.27;101224.05;124491;1098;104586;-76
2020/12/20 10:50:26;;;;;;;99.17;61.37;;;;;;;5.52;72.49;101226.58;124456;1098;104538;-78
2020/12/20 10:52:54;;;;;;;110.17;67.50;;;;;;;5.54;72.31;101234.43;124408;1098;104605;-77
2020/12/20 10:55:22;;;;;;;103.20;64.50;;;;;;;5.55;73.24;101234.34;124416;1098;104526;-76
2020/12/20 10:57:51;;;;;;;62.43;33.00;;;;;;;5.57;73.28;101218.36;124460;1098;104727;-77
2020/12/20 11:00:20;;;;;;;137.93;79.80;;;;;;;5.55;72.53;101220.27;124456;1098;104617;-77
2020/12/20 11:02:48;;;;;;;165.85;104.40;;;;;;;5.55;72.38;101220.27;124396;1098;104523;-76
2020/12/20 11:05:16;;;;;;;133.25;78.70;;;;;;;5.58;73.27;101215.63;124418;1098;104620;-77
2020/12/20 11:07:44;;;;;;;92.35;52.20;;;;;;;5.61;72.64;101210.13;124440;1098;104609;-79
2020/12/20 11:10:12;;;;;;;97.63;58.00;;;;;;;5.63;72.13;101207.38;124434;1098;104621;-77
2020/12/20 11:12:40;;;;;;;70.20;36.50;;;;;;;5.63;72.45;101212.67;124550;1098;104580;-75
2020/12/20 11:15:09;;;;;;;153.60;99.73;;;;;;;5.66;73.19;101212.50;124499;1093;104624;-75
2020/12/20 11:17:37;;;;;;;119.17;72.03;;;;;;;5.72;73.24;101201.50;124531;1093;104642;-76
2020/12/20 11:20:06;;;;;;;95.30;58.60;;;;;;;5.76;72.78;101210.11;124656;1091;104545;-75